sensor_id;sensor_type;location;lat;lon;timestamp;pressure;altitude;pressure_sealevel;temperature;humidity
76853;BME280;65825;52.232;10.566;2023-07-31T00:00:29;100233.25;;;15.61;100.00
76853;BME280;65825;52.232;10.566;2023-07-31T00:02:54;100227.13;;;15.45;100.00
76853;BME280;65825;52.232;10.566;2023-07-31T00:05:20;100222.41;;;15.50;100.00
76853;BME280;65825;52.232;10.566;2023-07-31T00:07:45;100216.81;;;15.54;100.00
76853;BME280;65825;52.232;10.566;2023-07-31T00:10:11;100219.78;;;15.64;100.00
76853;BME280;65825;52.232;10.566;2023-07-31T00:12:38;100213.59;;;15.63;100.00
76853;BME280;65825;52.232;10.566;2023-07-31T00:15:03;100206.41;;;15.65;100.00
76853;BME280;65825;52.232;10.566;2023-07-31T00:17:29;100204.84;;;15.61;100.00
76853;BME280;65825;52.232;10.566;2023-07-31T00:19:55;100206.41;;;15.65;100.00
76853;BME280;65825;52.232;10.566;2023-07-31T00:22:20;100205.34;;;15.68;100.00
76853;BME280;65825;52.232;10.566;2023-07-31T00:24:45;100212.75;;;15.77;100.00
76853;BME280;65825;52.232;10.566;2023-07-31T00:27:10;100198.81;;;15.87;100.00
76853;BME280;65825;52.232;10.566;2023-07-31T00:29:36;100202.22;;;15.89;100.00
76853;BME280;65825;52.232;10.566;2023-07-31T00:32:01;100203.84;;;15.92;100.00
76853;BME280;65825;52.232;10.566;2023-07-31T00:34:26;100199.41;;;15.92;100.00
76853;BME280;65825;52.232;10.566;2023-07-31T00:36:52;100197.69;;;15.91;100.00
76853;BME280;65825;52.232;10.566;2023-07-31T00:39:17;100186.56;;;15.85;100.00
76853;BME280;65825;52.232;10.566;2023-07-31T00:41:42;100190.94;;;15.86;100.00
76853;BME280;65825;52.232;10.566;2023-07-31T00:44:08;100192.75;;;15.56;100.00
76853;BME280;65825;52.232;10.566;2023-07-31T00:46:33;100185.09;;;15.65;100.00
76853;BME280;65825;52.232;10.566;2023-07-31T00:48:59;100191.38;;;15.64;100.00
76853;BME280;65825;52.232;10.566;2023-07-31T00:51:24;100187.31;;;15.73;100.00
76853;BME280;65825;52.232;10.566;2023-07-31T00:53:50;100185.19;;;15.64;100.00
76853;BME280;65825;52.232;10.566;2023-07-31T00:56:16;100185.78;;;15.69;100.00
76853;BME280;65825;52.232;10.566;2023-07-31T00:58:41;100182.06;;;15.71;100.00
76853;BME280;65825;52.232;10.566;2023-07-31T01:01:06;100178.16;;;15.77;100.00
76853;BME280;65825;52.232;10.566;2023-07-31T01:03:32;100178.53;;;15.71;100.00
76853;BME280;65825;52.232;10.566;2023-07-31T01:08:41;100170.97;;;15.79;100.00
76853;BME280;65825;52.232;10.566;2023-07-31T01:11:15;100166.78;;;15.75;100.00
76853;BME280;65825;52.232;10.566;2023-07-31T01:13:42;100157.47;;;15.68;100.00
76853;BME280;65825;52.232;10.566;2023-07-31T01:16:09;100159.16;;;15.69;100.00
76853;BME280;65825;52.232;10.566;2023-07-31T01:18:34;100151.34;;;15.66;100.00
76853;BME280;65825;52.232;10.566;2023-07-31T01:21:22;100156.13;;;15.75;100.00
76853;BME280;65825;52.232;10.566;2023-07-31T01:26:36;100149.94;;;15.74;100.00
76853;BME280;65825;52.232;10.566;2023-07-31T01:29:09;100141.09;;;15.60;100.00
76853;BME280;65825;52.232;10.566;2023-07-31T01:31:36;100140.25;;;15.73;100.00
76853;BME280;65825;52.232;10.566;2023-07-31T01:34:02;100139.66;;;15.54;100.00
76853;BME280;65825;52.232;10.566;2023-07-31T01:36:29;100135.28;;;15.67;100.00
76853;BME280;65825;52.232;10.566;2023-07-31T01:38:59;100133.88;;;15.62;100.00
76853;BME280;65825;52.232;10.566;2023-07-31T01:41:25;100131.22;;;15.62;100.00
76853;BME280;65825;52.232;10.566;2023-07-31T01:43:50;100123.25;;;15.62;100.00
76853;BME280;65825;52.232;10.566;2023-07-31T01:46:16;100134.16;;;15.57;100.00
76853;BME280;65825;52.232;10.566;2023-07-31T01:48:41;100122.91;;;15.52;100.00
76853;BME280;65825;52.232;10.566;2023-07-31T01:51:06;100121.03;;;15.54;100.00
76853;BME280;65825;52.232;10.566;2023-07-31T01:53:32;100122.84;;;15.54;100.00
76853;BME280;65825;52.232;10.566;2023-07-31T01:55:57;100117.03;;;15.47;100.00
76853;BME280;65825;52.232;10.566;2023-07-31T01:58:22;100120.25;;;15.52;100.00
76853;BME280;65825;52.232;10.566;2023-07-31T02:00:48;100103.84;;;15.60;100.00
76853;BME280;65825;52.232;10.566;2023-07-31T02:03:13;100119.97;;;15.43;100.00
76853;BME280;65825;52.232;10.566;2023-07-31T02:05:46;100108.22;;;15.47;100.00
76853;BME280;65825;52.232;10.566;2023-07-31T02:08:11;100107.44;;;15.45;100.00
76853;BME280;65825;52.232;10.566;2023-07-31T02:10:36;100097.00;;;15.42;100.00
76853;BME280;65825;52.232;10.566;2023-07-31T02:13:02;100091.84;;;15.39;100.00
76853;BME280;65825;52.232;10.566;2023-07-31T02:15:29;100097.81;;;15.42;100.00
76853;BME280;65825;52.232;10.566;2023-07-31T02:17:54;100098.28;;;15.35;100.00
76853;BME280;65825;52.232;10.566;2023-07-31T02:20:20;100091.09;;;15.37;100.00
76853;BME280;65825;52.232;10.566;2023-07-31T02:22:45;100083.44;;;15.31;100.00
76853;BME280;65825;52.232;10.566;2023-07-31T02:25:10;100085.69;;;15.23;100.00
76853;BME280;65825;52.232;10.566;2023-07-31T02:27:36;100077.25;;;15.30;100.00
76853;BME280;65825;52.232;10.566;2023-07-31T02:30:01;100071.69;;;15.35;100.00
76853;BME280;65825;52.232;10.566;2023-07-31T02:32:26;100070.41;;;15.26;100.00
76853;BME280;65825;52.232;10.566;2023-07-31T02:34:52;100070.03;;;15.32;100.00
76853;BME280;65825;52.232;10.566;2023-07-31T02:37:17;100073.75;;;15.30;100.00
76853;BME280;65825;52.232;10.566;2023-07-31T02:39:42;100077.91;;;15.20;100.00
76853;BME280;65825;52.232;10.566;2023-07-31T02:42:07;100082.75;;;15.27;100.00
76853;BME280;65825;52.232;10.566;2023-07-31T02:44:33;100066.78;;;15.27;100.00
76853;BME280;65825;52.232;10.566;2023-07-31T02:46:58;100058.50;;;15.33;100.00
76853;BME280;65825;52.232;10.566;2023-07-31T02:49:23;100064.34;;;15.24;100.00
76853;BME280;65825;52.232;10.566;2023-07-31T02:51:49;100064.25;;;15.26;100.00
76853;BME280;65825;52.232;10.566;2023-07-31T02:54:14;100059.28;;;15.20;100.00
76853;BME280;65825;52.232;10.566;2023-07-31T02:56:39;100045.81;;;15.23;100.00
76853;BME280;65825;52.232;10.566;2023-07-31T02:59:05;100053.22;;;15.18;100.00
76853;BME280;65825;52.232;10.566;2023-07-31T03:01:30;100048.38;;;15.24;100.00
76853;BME280;65825;52.232;10.566;2023-07-31T03:03:56;100047.25;;;15.28;100.00
76853;BME280;65825;52.232;10.566;2023-07-31T03:06:21;100044.03;;;15.23;100.00
76853;BME280;65825;52.232;10.566;2023-07-31T03:08:47;100052.25;;;15.19;100.00
76853;BME280;65825;52.232;10.566;2023-07-31T03:11:12;100046.78;;;15.22;100.00
76853;BME280;65825;52.232;10.566;2023-07-31T03:13:37;100047.81;;;15.19;100.00
76853;BME280;65825;52.232;10.566;2023-07-31T03:16:03;100038.41;;;15.28;100.00
76853;BME280;65825;52.232;10.566;2023-07-31T03:18:28;100041.81;;;15.16;100.00
76853;BME280;65825;52.232;10.566;2023-07-31T03:20:53;100039.34;;;15.13;100.00
76853;BME280;65825;52.232;10.566;2023-07-31T03:23:19;100038.75;;;15.08;100.00
76853;BME280;65825;52.232;10.566;2023-07-31T03:26:01;100034.31;;;15.22;100.00
76853;BME280;65825;52.232;10.566;2023-07-31T03:28:26;100043.03;;;15.10;100.00
76853;BME280;65825;52.232;10.566;2023-07-31T03:30:52;100045.91;;;15.21;100.00
76853;BME280;65825;52.232;10.566;2023-07-31T03:33:18;100039.06;;;15.17;100.00
76853;BME280;65825;52.232;10.566;2023-07-31T03:35:44;100044.94;;;15.22;100.00
76853;BME280;65825;52.232;10.566;2023-07-31T03:38:09;100043.53;;;15.17;100.00
76853;BME280;65825;52.232;10.566;2023-07-31T03:40:35;100041.81;;;15.16;100.00
76853;BME280;65825;52.232;10.566;2023-07-31T03:43:00;100041.63;;;15.19;100.00
76853;BME280;65825;52.232;10.566;2023-07-31T03:45:25;100049.88;;;15.14;100.00
76853;BME280;65825;52.232;10.566;2023-07-31T03:47:51;100050.19;;;15.24;100.00
76853;BME280;65825;52.232;10.566;2023-07-31T03:50:16;100049.44;;;15.22;100.00
76853;BME280;65825;52.232;10.566;2023-07-31T03:52:42;100052.66;;;15.27;100.00
76853;BME280;65825;52.232;10.566;2023-07-31T03:55:07;100056.06;;;15.29;100.00
76853;BME280;65825;52.232;10.566;2023-07-31T03:57:32;100047.03;;;15.17;100.00
76853;BME280;65825;52.232;10.566;2023-07-31T03:59:58;100059.78;;;15.26;100.00
76853;BME280;65825;52.232;10.566;2023-07-31T04:02:23;100057.41;;;15.22;100.00
76853;BME280;65825;52.232;10.566;2023-07-31T04:04:49;100056.28;;;15.26;100.00
76853;BME280;65825;52.232;10.566;2023-07-31T04:07:14;100058.81;;;15.27;100.00
76853;BME280;65825;52.232;10.566;2023-07-31T04:09:39;100062.34;;;15.28;100.00
76853;BME280;65825;52.232;10.566;2023-07-31T04:12:05;100064.50;;;15.21;100.00
76853;BME280;65825;52.232;10.566;2023-07-31T04:14:30;100060.06;;;15.22;100.00
76853;BME280;65825;52.232;10.566;2023-07-31T04:16:56;100061.84;;;15.37;100.00
76853;BME280;65825;52.232;10.566;2023-07-31T04:19:21;100051.94;;;15.39;100.00
76853;BME280;65825;52.232;10.566;2023-07-31T04:21:46;100052.22;;;15.34;100.00
76853;BME280;65825;52.232;10.566;2023-07-31T04:24:11;100056.22;;;15.41;100.00
76853;BME280;65825;52.232;10.566;2023-07-31T04:26:37;100047.56;;;15.38;100.00
76853;BME280;65825;52.232;10.566;2023-07-31T04:29:02;100046.72;;;15.37;100.00
76853;BME280;65825;52.232;10.566;2023-07-31T04:31:27;100046.72;;;15.37;100.00
76853;BME280;65825;52.232;10.566;2023-07-31T04:33:52;100051.72;;;15.28;100.00
76853;BME280;65825;52.232;10.566;2023-07-31T04:36:18;100044.56;;;15.14;100.00
76853;BME280;65825;52.232;10.566;2023-07-31T04:38:43;100046.56;;;15.11;100.00
76853;BME280;65825;52.232;10.566;2023-07-31T04:41:08;100051.09;;;15.09;100.00
76853;BME280;65825;52.232;10.566;2023-07-31T04:43:33;100050.84;;;15.13;100.00
76853;BME280;65825;52.232;10.566;2023-07-31T04:45:59;100051.09;;;15.09;100.00
76853;BME280;65825;52.232;10.566;2023-07-31T04:48:24;100062.88;;;15.05;100.00
76853;BME280;65825;52.232;10.566;2023-07-31T04:50:49;100056.88;;;15.01;100.00
76853;BME280;65825;52.232;10.566;2023-07-31T04:53:15;100045.00;;;14.93;100.00
76853;BME280;65825;52.232;10.566;2023-07-31T04:55:40;100063.22;;;14.99;100.00
76853;BME280;65825;52.232;10.566;2023-07-31T04:58:05;100062.63;;;14.94;100.00
76853;BME280;65825;52.232;10.566;2023-07-31T05:00:31;100052.78;;;14.96;100.00
76853;BME280;65825;52.232;10.566;2023-07-31T05:02:56;100051.16;;;14.93;100.00
76853;BME280;65825;52.232;10.566;2023-07-31T05:05:21;100059.53;;;14.72;100.00
76853;BME280;65825;52.232;10.566;2023-07-31T05:07:47;100061.91;;;14.76;100.00
76853;BME280;65825;52.232;10.566;2023-07-31T05:10:12;100057.31;;;14.64;100.00
76853;BME280;65825;52.232;10.566;2023-07-31T05:12:38;100054.38;;;14.84;100.00
76853;BME280;65825;52.232;10.566;2023-07-31T05:15:03;100062.13;;;14.73;100.00
76853;BME280;65825;52.232;10.566;2023-07-31T05:17:29;100054.72;;;14.78;100.00
76853;BME280;65825;52.232;10.566;2023-07-31T05:19:54;100042.19;;;14.80;100.00
76853;BME280;65825;52.232;10.566;2023-07-31T05:22:19;100046.09;;;14.89;100.00
76853;BME280;65825;52.232;10.566;2023-07-31T05:24:45;100041.03;;;14.70;100.00
76853;BME280;65825;52.232;10.566;2023-07-31T05:27:10;100035.22;;;14.93;100.00
76853;BME280;65825;52.232;10.566;2023-07-31T05:29:35;100029.31;;;14.88;100.00
76853;BME280;65825;52.232;10.566;2023-07-31T05:32:01;100029.38;;;15.02;100.00
76853;BME280;65825;52.232;10.566;2023-07-31T05:34:26;100032.94;;;15.01;100.00
76853;BME280;65825;52.232;10.566;2023-07-31T05:36:52;100027.75;;;15.00;100.00
76853;BME280;65825;52.232;10.566;2023-07-31T05:39:17;100023.19;;;15.02;100.00
76853;BME280;65825;52.232;10.566;2023-07-31T05:41:44;100020.53;;;15.02;100.00
76853;BME280;65825;52.232;10.566;2023-07-31T05:44:10;100024.59;;;15.07;100.00
76853;BME280;65825;52.232;10.566;2023-07-31T05:46:35;100014.78;;;15.23;100.00
76853;BME280;65825;52.232;10.566;2023-07-31T05:49:00;100014.19;;;15.18;100.00
76853;BME280;65825;52.232;10.566;2023-07-31T05:51:26;100010.66;;;15.04;100.00
76853;BME280;65825;52.232;10.566;2023-07-31T05:53:51;100016.34;;;14.98;100.00
76853;BME280;65825;52.232;10.566;2023-07-31T05:56:17;100011.69;;;15.01;100.00
76853;BME280;65825;52.232;10.566;2023-07-31T05:58:42;100012.66;;;15.14;100.00
76853;BME280;65825;52.232;10.566;2023-07-31T06:01:07;100006.09;;;15.20;100.00
76853;BME280;65825;52.232;10.566;2023-07-31T06:03:32;100000.03;;;15.18;100.00
76853;BME280;65825;52.232;10.566;2023-07-31T06:05:58;100001.84;;;15.31;100.00
76853;BME280;65825;52.232;10.566;2023-07-31T06:08:23;99999.19;;;15.31;100.00
76853;BME280;65825;52.232;10.566;2023-07-31T06:10:48;99997.78;;;15.54;100.00
76853;BME280;65825;52.232;10.566;2023-07-31T06:13:14;99993.22;;;15.56;100.00
76853;BME280;65825;52.232;10.566;2023-07-31T06:15:39;99993.59;;;15.78;100.00
76853;BME280;65825;52.232;10.566;2023-07-31T06:18:04;99987.78;;;15.85;100.00
76853;BME280;65825;52.232;10.566;2023-07-31T06:20:33;99988.78;;;15.97;100.00
76853;BME280;65825;52.232;10.566;2023-07-31T06:22:59;99984.47;;;16.08;100.00
76853;BME280;65825;52.232;10.566;2023-07-31T06:25:24;99984.94;;;16.15;100.00
76853;BME280;65825;52.232;10.566;2023-07-31T06:27:49;99985.22;;;16.51;100.00
76853;BME280;65825;52.232;10.566;2023-07-31T06:30:15;99988.22;;;16.59;100.00
76853;BME280;65825;52.232;10.566;2023-07-31T06:32:40;99989.03;;;16.86;100.00
76853;BME280;65825;52.232;10.566;2023-07-31T06:35:06;99988.25;;;16.84;100.00
76853;BME280;65825;52.232;10.566;2023-07-31T06:37:31;99989.53;;;16.66;100.00
76853;BME280;65825;52.232;10.566;2023-07-31T06:39:57;99990.69;;;16.62;100.00
76853;BME280;65825;52.232;10.566;2023-07-31T06:42:22;99993.34;;;16.62;100.00
76853;BME280;65825;52.232;10.566;2023-07-31T06:44:47;99996.81;;;16.23;100.00
76853;BME280;65825;52.232;10.566;2023-07-31T06:47:13;99998.97;;;16.31;100.00
76853;BME280;65825;52.232;10.566;2023-07-31T06:49:38;99994.50;;;16.58;100.00
76853;BME280;65825;52.232;10.566;2023-07-31T06:52:04;99990.47;;;16.77;100.00
76853;BME280;65825;52.232;10.566;2023-07-31T06:54:29;99990.28;;;16.80;100.00
76853;BME280;65825;52.232;10.566;2023-07-31T06:56:54;99974.41;;;16.91;100.00
76853;BME280;65825;52.232;10.566;2023-07-31T06:59:20;99992.66;;;16.97;100.00
76853;BME280;65825;52.232;10.566;2023-07-31T07:01:45;99976.56;;;17.11;100.00
76853;BME280;65825;52.232;10.566;2023-07-31T07:04:10;99986.22;;;16.87;100.00
76853;BME280;65825;52.232;10.566;2023-07-31T07:06:36;99982.31;;;16.93;100.00
76853;BME280;65825;52.232;10.566;2023-07-31T07:09:01;99982.59;;;16.88;100.00
76853;BME280;65825;52.232;10.566;2023-07-31T07:11:26;99979.75;;;16.91;100.00
76853;BME280;65825;52.232;10.566;2023-07-31T07:13:51;99987.41;;;16.71;100.00
76853;BME280;65825;52.232;10.566;2023-07-31T07:16:17;99980.16;;;16.85;100.00
76853;BME280;65825;52.232;10.566;2023-07-31T07:18:42;99979.09;;;16.88;100.00
76853;BME280;65825;52.232;10.566;2023-07-31T07:21:08;99981.03;;;16.86;100.00
76853;BME280;65825;52.232;10.566;2023-07-31T07:23:33;99984.88;;;16.94;100.00
76853;BME280;65825;52.232;10.566;2023-07-31T07:25:59;99987.94;;;17.01;100.00
76853;BME280;65825;52.232;10.566;2023-07-31T07:28:24;99978.03;;;16.90;100.00
76853;BME280;65825;52.232;10.566;2023-07-31T07:30:52;99988.59;;;16.92;100.00
76853;BME280;65825;52.232;10.566;2023-07-31T07:33:20;99979.75;;;16.91;100.00
76853;BME280;65825;52.232;10.566;2023-07-31T07:35:46;99988.59;;;16.92;100.00
76853;BME280;65825;52.232;10.566;2023-07-31T07:38:13;99984.00;;;16.94;100.00
76853;BME280;65825;52.232;10.566;2023-07-31T07:40:39;99983.56;;;16.87;100.00
76853;BME280;65825;52.232;10.566;2023-07-31T07:43:05;99976.34;;;17.02;100.00
76853;BME280;65825;52.232;10.566;2023-07-31T07:45:30;99968.88;;;17.19;100.00
76853;BME280;65825;52.232;10.566;2023-07-31T07:47:55;99972.94;;;17.12;100.00
76853;BME280;65825;52.232;10.566;2023-07-31T07:50:21;99973.25;;;17.20;100.00
76853;BME280;65825;52.232;10.566;2023-07-31T07:52:46;99976.13;;;17.17;100.00
76853;BME280;65825;52.232;10.566;2023-07-31T07:55:11;99971.97;;;17.26;100.00
76853;BME280;65825;52.232;10.566;2023-07-31T07:57:37;99979.53;;;17.57;100.00
76853;BME280;65825;52.232;10.566;2023-07-31T08:00:02;99975.25;;;17.67;100.00
76853;BME280;65825;52.232;10.566;2023-07-31T08:02:28;99970.28;;;17.50;100.00
76853;BME280;65825;52.232;10.566;2023-07-31T08:04:53;99984.47;;;17.38;100.00
76853;BME280;65825;52.232;10.566;2023-07-31T08:07:18;99977.63;;;17.34;100.00
76853;BME280;65825;52.232;10.566;2023-07-31T08:09:44;99981.81;;;17.25;100.00
76853;BME280;65825;52.232;10.566;2023-07-31T08:12:09;99980.19;;;17.23;100.00
76853;BME280;65825;52.232;10.566;2023-07-31T08:14:34;99986.91;;;17.66;100.00
76853;BME280;65825;52.232;10.566;2023-07-31T08:17:00;99982.50;;;18.49;100.00
76853;BME280;65825;52.232;10.566;2023-07-31T08:19:26;99983.34;;;19.41;100.00
76853;BME280;65825;52.232;10.566;2023-07-31T08:21:51;99982.38;;;19.42;100.00
76853;BME280;65825;52.232;10.566;2023-07-31T08:24:16;99988.09;;;18.92;100.00
76853;BME280;65825;52.232;10.566;2023-07-31T08:26:42;99977.25;;;19.28;100.00
76853;BME280;65825;52.232;10.566;2023-07-31T08:29:07;99974.34;;;19.86;100.00
76853;BME280;65825;52.232;10.566;2023-07-31T08:31:32;99962.41;;;19.79;100.00
76853;BME280;65825;52.232;10.566;2023-07-31T08:33:58;99974.66;;;19.92;100.00
76853;BME280;65825;52.232;10.566;2023-07-31T08:36:23;99972.66;;;19.52;100.00
76853;BME280;65825;52.232;10.566;2023-07-31T08:38:48;99963.59;;;19.20;100.00
76853;BME280;65825;52.232;10.566;2023-07-31T08:41:15;99972.31;;;19.00;100.00
76853;BME280;65825;52.232;10.566;2023-07-31T08:43:44;99982.06;;;18.19;100.00
76853;BME280;65825;52.232;10.566;2023-07-31T08:46:09;99980.03;;;17.74;100.00
76853;BME280;65825;52.232;10.566;2023-07-31T08:48:35;99976.88;;;17.57;100.00
76853;BME280;65825;52.232;10.566;2023-07-31T08:51:02;99978.47;;;17.59;100.00
76853;BME280;65825;52.232;10.566;2023-07-31T08:53:27;99984.59;;;17.49;100.00
76853;BME280;65825;52.232;10.566;2023-07-31T08:55:53;99973.16;;;17.47;100.00
76853;BME280;65825;52.232;10.566;2023-07-31T08:58:19;99978.47;;;17.22;100.00
76853;BME280;65825;52.232;10.566;2023-07-31T09:00:46;99982.66;;;17.51;100.00
76853;BME280;65825;52.232;10.566;2023-07-31T09:03:17;99991.38;;;17.65;100.00
76853;BME280;65825;52.232;10.566;2023-07-31T09:05:44;99985.19;;;17.77;100.00
76853;BME280;65825;52.232;10.566;2023-07-31T09:08:15;99977.44;;;17.85;100.00
76853;BME280;65825;52.232;10.566;2023-07-31T09:10:43;99971.41;;;17.71;100.00
76853;BME280;65825;52.232;10.566;2023-07-31T09:13:11;99970.69;;;17.56;100.00
76853;BME280;65825;52.232;10.566;2023-07-31T09:15:36;99966.00;;;17.60;100.00
76853;BME280;65825;52.232;10.566;2023-07-31T09:18:03;99974.94;;;17.71;100.00
76853;BME280;65825;52.232;10.566;2023-07-31T09:20:28;99962.44;;;17.72;100.00
76853;BME280;65825;52.232;10.566;2023-07-31T09:22:55;99965.22;;;17.58;100.00
76853;BME280;65825;52.232;10.566;2023-07-31T09:25:26;99968.25;;;17.53;100.00
76853;BME280;65825;52.232;10.566;2023-07-31T09:27:58;99952.91;;;17.80;100.00
76853;BME280;65825;52.232;10.566;2023-07-31T09:30:24;99951.25;;;17.54;100.00
76853;BME280;65825;52.232;10.566;2023-07-31T09:32:50;99945.88;;;17.67;100.00
76853;BME280;65825;52.232;10.566;2023-07-31T09:35:27;99940.63;;;17.78;100.00
76853;BME280;65825;52.232;10.566;2023-07-31T09:37:55;99943.19;;;17.79;100.00
76853;BME280;65825;52.232;10.566;2023-07-31T09:43:02;99939.66;;;17.43;100.00
76853;BME280;65825;52.232;10.566;2023-07-31T09:45:28;99940.16;;;17.48;100.00
76853;BME280;65825;52.232;10.566;2023-07-31T09:47:55;99946.44;;;17.34;100.00
76853;BME280;65825;52.232;10.566;2023-07-31T09:50:22;99937.72;;;17.45;100.00
76853;BME280;65825;52.232;10.566;2023-07-31T09:52:47;99938.69;;;17.31;100.00
76853;BME280;65825;52.232;10.566;2023-07-31T09:55:13;99939.94;;;17.51;100.00
76853;BME280;65825;52.232;10.566;2023-07-31T09:57:40;99930.25;;;17.25;100.00
76853;BME280;65825;52.232;10.566;2023-07-31T10:00:08;99927.41;;;17.40;100.00
76853;BME280;65825;52.232;10.566;2023-07-31T10:02:37;99935.88;;;17.58;100.00
76853;BME280;65825;52.232;10.566;2023-07-31T10:05:03;99929.81;;;17.56;100.00
76853;BME280;65825;52.232;10.566;2023-07-31T10:07:30;99934.78;;;17.60;100.00
76853;BME280;65825;52.232;10.566;2023-07-31T10:09:57;99932.38;;;17.45;100.00
76853;BME280;65825;52.232;10.566;2023-07-31T10:12:26;99933.88;;;17.49;100.00
76853;BME280;65825;52.232;10.566;2023-07-31T10:14:54;99933.56;;;17.41;100.00
76853;BME280;65825;52.232;10.566;2023-07-31T10:17:21;99932.69;;;17.53;100.00
76853;BME280;65825;52.232;10.566;2023-07-31T10:19:48;99923.19;;;17.61;100.00
76853;BME280;65825;52.232;10.566;2023-07-31T10:22:14;99934.66;;;17.74;100.00
76853;BME280;65825;52.232;10.566;2023-07-31T10:24:39;99928.84;;;18.40;100.00
76853;BME280;65825;52.232;10.566;2023-07-31T10:27:07;99923.22;;;19.23;100.00
76853;BME280;65825;52.232;10.566;2023-07-31T10:29:32;99916.09;;;20.10;100.00
76853;BME280;65825;52.232;10.566;2023-07-31T10:31:59;99906.56;;;20.69;99.55
76853;BME280;65825;52.232;10.566;2023-07-31T10:34:25;99917.06;;;21.52;94.80
76853;BME280;65825;52.232;10.566;2023-07-31T10:37:21;99915.00;;;21.95;86.08
76853;BME280;65825;52.232;10.566;2023-07-31T10:39:59;99897.25;;;21.14;90.81
76853;BME280;65825;52.232;10.566;2023-07-31T10:45:13;99896.22;;;20.01;98.84
76853;BME280;65825;52.232;10.566;2023-07-31T10:47:44;99892.56;;;20.13;99.85
76853;BME280;65825;52.232;10.566;2023-07-31T10:50:17;99888.00;;;19.82;100.00
76853;BME280;65825;52.232;10.566;2023-07-31T10:52:51;99890.75;;;19.49;100.00
76853;BME280;65825;52.232;10.566;2023-07-31T10:55:41;99885.75;;;19.34;100.00
76853;BME280;65825;52.232;10.566;2023-07-31T10:58:11;99884.06;;;19.33;100.00
76853;BME280;65825;52.232;10.566;2023-07-31T11:00:39;99875.63;;;19.15;100.00
76853;BME280;65825;52.232;10.566;2023-07-31T11:03:10;99867.84;;;19.56;100.00
76853;BME280;65825;52.232;10.566;2023-07-31T11:05:52;99883.16;;;19.76;99.12
76853;BME280;65825;52.232;10.566;2023-07-31T11:08:23;99874.78;;;20.12;96.25
76853;BME280;65825;52.232;10.566;2023-07-31T11:10:51;99879.97;;;19.82;99.30
76853;BME280;65825;52.232;10.566;2023-07-31T11:13:30;99871.16;;;21.16;88.56
76853;BME280;65825;52.232;10.566;2023-07-31T11:15:55;99869.72;;;21.51;83.80
76853;BME280;65825;52.232;10.566;2023-07-31T11:18:21;99862.75;;;21.39;85.19
76853;BME280;65825;52.232;10.566;2023-07-31T11:20:46;99862.91;;;22.72;78.22
76853;BME280;65825;52.232;10.566;2023-07-31T11:23:12;99856.84;;;25.44;62.38
76853;BME280;65825;52.232;10.566;2023-07-31T11:25:38;99855.00;;;27.30;57.63
76853;BME280;65825;52.232;10.566;2023-07-31T11:28:06;99843.41;;;26.66;56.68
76853;BME280;65825;52.232;10.566;2023-07-31T11:30:33;99842.63;;;28.05;53.80
76853;BME280;65825;52.232;10.566;2023-07-31T11:33:00;99823.44;;;26.51;55.48
76853;BME280;65825;52.232;10.566;2023-07-31T11:35:26;99833.66;;;24.40;64.86
76853;BME280;65825;52.232;10.566;2023-07-31T11:37:51;99836.72;;;23.11;69.25
76853;BME280;65825;52.232;10.566;2023-07-31T11:40:17;99836.72;;;22.65;73.64
76853;BME280;65825;52.232;10.566;2023-07-31T11:42:43;99838.19;;;22.50;76.80
76853;BME280;65825;52.232;10.566;2023-07-31T11:45:08;99835.19;;;22.15;73.95
76853;BME280;65825;52.232;10.566;2023-07-31T11:47:36;99829.63;;;22.64;73.68
76853;BME280;65825;52.232;10.566;2023-07-31T11:50:06;99825.31;;;21.47;81.70
76853;BME280;65825;52.232;10.566;2023-07-31T11:52:36;99832.34;;;21.39;80.92
76853;BME280;65825;52.232;10.566;2023-07-31T11:55:03;99831.16;;;21.22;80.71
76853;BME280;65825;52.232;10.566;2023-07-31T11:57:29;99825.34;;;21.17;81.83
76853;BME280;65825;52.232;10.566;2023-07-31T11:59:55;99822.53;;;21.19;82.09
76853;BME280;65825;52.232;10.566;2023-07-31T12:02:21;99816.31;;;21.58;80.81
76853;BME280;65825;52.232;10.566;2023-07-31T12:04:47;99822.41;;;21.20;81.89
76853;BME280;65825;52.232;10.566;2023-07-31T12:07:13;99820.66;;;20.80;83.48
76853;BME280;65825;52.232;10.566;2023-07-31T12:09:38;99823.00;;;20.53;84.82
76853;BME280;65825;52.232;10.566;2023-07-31T12:12:08;99818.00;;;20.39;86.64
76853;BME280;65825;52.232;10.566;2023-07-31T12:14:33;99824.16;;;20.30;88.61
76853;BME280;65825;52.232;10.566;2023-07-31T12:17:00;99814.41;;;20.29;87.88
76853;BME280;65825;52.232;10.566;2023-07-31T12:19:26;99815.25;;;20.50;89.63
76853;BME280;65825;52.232;10.566;2023-07-31T12:21:54;99807.31;;;20.07;92.65
76853;BME280;65825;52.232;10.566;2023-07-31T12:24:20;99814.78;;;20.24;92.52
76853;BME280;65825;52.232;10.566;2023-07-31T12:26:46;99814.56;;;20.78;89.77
76853;BME280;65825;52.232;10.566;2023-07-31T12:29:12;99803.03;;;21.07;85.27
76853;BME280;65825;52.232;10.566;2023-07-31T12:31:41;99809.00;;;21.20;85.59
76853;BME280;65825;52.232;10.566;2023-07-31T12:34:15;99806.75;;;21.25;85.64
76853;BME280;65825;52.232;10.566;2023-07-31T12:36:42;99805.88;;;21.25;86.83
76853;BME280;65825;52.232;10.566;2023-07-31T12:39:07;99803.16;;;21.06;87.28
76853;BME280;65825;52.232;10.566;2023-07-31T12:41:32;99798.19;;;20.81;86.12